createdAt,value
2018-01-26T00:02:15.870Z,8.10
2018-01-26T00:04:43.315Z,8.10
2018-01-26T00:07:10.788Z,8.10
2018-01-26T00:09:38.262Z,8.00
2018-01-26T00:12:05.740Z,8.00
2018-01-26T00:14:33.990Z,8.00
2018-01-26T00:17:01.472Z,7.90
2018-01-26T00:19:31.006Z,8.00
2018-01-26T00:21:58.553Z,7.90
2018-01-26T00:24:26.781Z,7.90
2018-01-26T00:26:54.235Z,7.90
2018-01-26T00:29:21.738Z,7.90
2018-01-26T00:31:50.044Z,7.90
2018-01-26T00:34:17.541Z,7.90
2018-01-26T00:36:45.019Z,7.90
2018-01-26T00:39:13.268Z,7.90
2018-01-26T00:41:40.734Z,7.90
2018-01-26T00:44:08.216Z,7.90
2018-01-26T00:46:37.509Z,7.80
2018-01-26T00:49:05.764Z,7.80
2018-01-26T00:51:33.241Z,7.80
2018-01-26T00:54:01.504Z,7.80
2018-01-26T00:56:28.965Z,7.80
2018-01-26T00:58:57.936Z,7.80
2018-01-26T01:01:25.427Z,7.80
2018-01-26T01:03:55.565Z,7.80
2018-01-26T01:06:23.105Z,7.70
2018-01-26T01:08:51.343Z,7.70
2018-01-26T01:11:18.821Z,7.70
2018-01-26T01:13:46.286Z,7.70
2018-01-26T01:16:14.528Z,7.70
2018-01-26T01:18:42.129Z,7.70
2018-01-26T01:21:10.396Z,7.70
2018-01-26T01:23:37.867Z,7.70
2018-01-26T01:26:06.105Z,7.70
2018-01-26T01:28:33.592Z,7.70
2018-01-26T01:31:02.070Z,7.70
2018-01-26T01:33:30.313Z,7.70
2018-01-26T01:35:57.782Z,7.70
2018-01-26T01:38:25.757Z,7.70
2018-01-26T01:40:53.361Z,7.80
2018-01-26T01:43:20.881Z,7.80
2018-01-26T01:45:49.228Z,7.80
2018-01-26T01:48:16.697Z,7.80
2018-01-26T01:50:44.933Z,7.80
2018-01-26T01:53:12.415Z,7.80
2018-01-26T01:55:39.896Z,7.80
2018-01-26T01:58:07.376Z,7.80
2018-01-26T02:00:35.609Z,7.90
2018-01-26T02:03:03.159Z,7.90
2018-01-26T02:05:30.639Z,7.90
2018-01-26T02:07:58.109Z,7.90
2018-01-26T02:10:25.587Z,7.80
2018-01-26T02:12:53.065Z,7.80
2018-01-26T02:15:20.558Z,7.80
2018-01-26T02:17:48.041Z,7.90
2018-01-26T02:20:15.535Z,7.80
2018-01-26T02:22:43.007Z,7.80
2018-01-26T02:25:11.387Z,7.80
2018-01-26T02:27:38.845Z,7.70
2018-01-26T02:30:06.368Z,7.80
2018-01-26T02:32:33.838Z,7.70
2018-01-26T02:35:01.331Z,7.70
2018-01-26T02:37:29.760Z,7.70
2018-01-26T02:39:57.982Z,7.70
2018-01-26T02:42:25.459Z,7.70
2018-01-26T02:44:52.928Z,7.70
2018-01-26T02:47:20.551Z,7.70
2018-01-26T02:49:48.033Z,7.70
2018-01-26T02:52:15.519Z,7.60
2018-01-26T02:54:43.117Z,7.60
2018-01-26T02:57:10.729Z,7.70
2018-01-26T02:59:39.002Z,7.60
2018-01-26T03:02:07.238Z,7.50
2018-01-26T03:04:34.695Z,7.50
2018-01-26T03:07:02.169Z,7.50
2018-01-26T03:09:29.637Z,7.50
2018-01-26T03:11:57.113Z,7.40
2018-01-26T03:14:25.526Z,7.50
2018-01-26T03:16:52.999Z,7.50
2018-01-26T03:19:20.479Z,7.50
2018-01-26T03:21:47.946Z,7.50
2018-01-26T03:24:15.426Z,7.50
2018-01-26T03:26:43.662Z,7.40
2018-01-26T03:29:11.148Z,7.50
2018-01-26T03:31:40.007Z,7.40
2018-01-26T03:34:07.496Z,7.40
2018-01-26T03:36:35.913Z,7.40
2018-01-26T03:39:04.429Z,7.40
2018-01-26T03:41:31.908Z,7.40
2018-01-26T03:43:59.368Z,7.40
2018-01-26T03:46:27.628Z,7.50
2018-01-26T03:48:56.046Z,7.50
2018-01-26T03:51:24.506Z,7.50
2018-01-26T03:53:52.745Z,7.50
2018-01-26T03:56:20.213Z,7.50
2018-01-26T03:58:50.041Z,7.50
2018-01-26T04:01:18.502Z,7.50
2018-01-26T04:03:45.981Z,7.50
2018-01-26T04:06:13.450Z,7.40
2018-01-26T04:08:41.690Z,7.40
2018-01-26T04:13:43.097Z,7.40
2018-01-26T04:16:11.286Z,7.40
2018-01-26T04:18:38.763Z,7.40
2018-01-26T04:21:07.235Z,7.40
2018-01-26T04:23:34.711Z,7.20
2018-01-26T04:26:02.224Z,7.10
2018-01-26T04:28:29.710Z,7.10
2018-01-26T04:30:58.298Z,7.00
2018-01-26T04:33:25.788Z,7.10
2018-01-26T04:35:53.925Z,7.10
2018-01-26T04:38:21.406Z,7.10
2018-01-26T04:40:48.951Z,7.20
2018-01-26T04:43:16.555Z,7.10
2018-01-26T04:45:44.881Z,7.20
2018-01-26T04:48:12.333Z,7.10
2018-01-26T04:50:39.943Z,7.10
2018-01-26T04:53:07.413Z,7.10
2018-01-26T04:55:36.508Z,7.20
2018-01-26T04:58:04.972Z,7.20
2018-01-26T05:00:33.512Z,7.10
2018-01-26T05:03:01.073Z,7.20
2018-01-26T05:05:29.262Z,7.20
2018-01-26T05:07:56.744Z,7.20
2018-01-26T05:10:24.280Z,7.20
2018-01-26T05:12:51.760Z,7.20
2018-01-26T05:15:20.976Z,7.30
2018-01-26T05:17:50.077Z,7.30
2018-01-26T05:20:17.574Z,7.30
2018-01-26T05:22:45.037Z,7.30
2018-01-26T05:25:12.524Z,7.20
2018-01-26T05:27:39.988Z,7.10
2018-01-26T05:30:09.293Z,7.00
2018-01-26T05:32:37.549Z,7.00
2018-01-26T05:35:05.037Z,7.00
2018-01-26T05:37:33.291Z,6.70
2018-01-26T05:40:00.880Z,6.60
2018-01-26T05:42:29.352Z,6.50
2018-01-26T05:44:57.694Z,6.50
2018-01-26T05:47:25.197Z,6.50
2018-01-26T05:49:52.702Z,6.50
2018-01-26T05:52:20.193Z,6.60
2018-01-26T05:54:49.497Z,6.60
2018-01-26T05:57:17.811Z,6.60
2018-01-26T05:59:45.407Z,6.60
2018-01-26T06:02:16.839Z,6.60
2018-01-26T06:04:45.322Z,6.60
2018-01-26T06:07:12.806Z,6.70
2018-01-26T06:09:41.052Z,6.60
2018-01-26T06:12:08.545Z,6.60
2018-01-26T06:14:36.794Z,6.60
2018-01-26T06:17:04.282Z,6.70
2018-01-26T06:19:33.029Z,6.60
2018-01-26T06:22:01.492Z,6.60
2018-01-26T06:24:29.002Z,6.60
2018-01-26T06:26:57.829Z,6.50
2018-01-26T06:29:25.452Z,6.50
2018-01-26T06:31:54.624Z,6.50
2018-01-26T06:34:22.183Z,6.50
2018-01-26T06:36:49.655Z,6.50
2018-01-26T06:39:17.154Z,6.60
2018-01-26T06:41:44.625Z,6.70
2018-01-26T06:44:12.101Z,6.80
2018-01-26T06:46:39.583Z,6.90
2018-01-26T06:49:07.041Z,6.90
2018-01-26T06:51:34.558Z,7.00
2018-01-26T06:54:02.049Z,7.10
2018-01-26T06:56:29.614Z,7.10
2018-01-26T06:58:58.014Z,7.10
2018-01-26T07:01:26.266Z,7.00
2018-01-26T07:03:53.729Z,7.00
2018-01-26T07:06:21.980Z,6.80
2018-01-26T07:08:49.477Z,6.80
2018-01-26T07:11:17.755Z,6.80
2018-01-26T07:13:46.906Z,6.80
2018-01-26T07:16:14.484Z,6.80
2018-01-26T07:18:41.959Z,6.80
2018-01-26T07:21:11.325Z,6.90
2018-01-26T07:23:38.810Z,6.90
2018-01-26T07:26:06.299Z,7.00
2018-01-26T07:28:34.301Z,7.10
2018-01-26T07:31:01.990Z,7.10
2018-01-26T07:33:29.560Z,7.00
2018-01-26T07:35:57.193Z,7.00
2018-01-26T07:38:24.709Z,6.90
2018-01-26T07:40:52.336Z,6.70
2018-01-26T07:43:19.809Z,6.60
2018-01-26T07:45:48.426Z,6.80
2018-01-26T07:48:16.224Z,6.80
2018-01-26T07:50:43.768Z,7.10
2018-01-26T07:53:12.687Z,7.20
2018-01-26T07:55:42.155Z,7.30
2018-01-26T07:58:10.883Z,7.30
2018-01-26T08:00:38.443Z,7.30
2018-01-26T08:03:06.199Z,7.30
2018-01-26T08:05:34.083Z,7.30
2018-01-26T08:08:01.941Z,7.50
2018-01-26T08:10:29.898Z,7.50
2018-01-26T08:12:57.519Z,7.30
2018-01-26T08:15:25.012Z,7.30
2018-01-26T08:17:53.520Z,7.40
2018-01-26T08:20:21.062Z,7.40
2018-01-26T08:22:48.680Z,7.50
2018-01-26T08:25:16.296Z,7.50
2018-01-26T08:27:44.530Z,7.40
2018-01-26T08:30:12.029Z,7.40
2018-01-26T08:32:40.538Z,7.50
2018-01-26T08:35:08.018Z,7.50
2018-01-26T08:37:35.613Z,7.60
2018-01-26T08:40:03.249Z,7.60
2018-01-26T08:42:31.568Z,7.50
2018-01-26T08:44:59.804Z,7.60
2018-01-26T08:47:27.355Z,7.70
2018-01-26T08:49:55.793Z,7.70
2018-01-26T08:52:24.148Z,7.80
2018-01-26T08:54:51.656Z,7.80
2018-01-26T08:57:20.128Z,7.80
2018-01-26T08:59:47.624Z,7.80
2018-01-26T09:02:15.368Z,7.90
2018-01-26T09:04:42.979Z,7.80
2018-01-26T09:07:11.989Z,7.80
2018-01-26T09:09:39.640Z,7.70
2018-01-26T09:12:07.933Z,7.40
2018-01-26T09:14:35.459Z,7.40
2018-01-26T09:17:03.759Z,7.60
2018-01-26T09:19:31.306Z,7.60
2018-01-26T09:21:59.736Z,7.70
2018-01-26T09:24:27.270Z,7.70
2018-01-26T09:26:54.913Z,7.80
2018-01-26T09:29:23.090Z,7.90
2018-01-26T09:31:50.603Z,7.90
2018-01-26T09:34:18.133Z,7.90
2018-01-26T09:36:45.654Z,8.00
2018-01-26T09:39:13.942Z,8.00
2018-01-26T09:41:41.555Z,8.00
2018-01-26T09:44:09.941Z,8.10
2018-01-26T09:46:37.438Z,8.00
2018-01-26T09:49:04.931Z,8.10
2018-01-26T09:51:32.389Z,8.20
2018-01-26T09:53:59.868Z,8.20
2018-01-26T09:56:27.438Z,8.20
2018-01-26T09:58:55.798Z,8.40
2018-01-26T10:01:23.376Z,8.40
2018-01-26T10:03:51.616Z,8.60
2018-01-26T10:06:19.989Z,8.60
2018-01-26T10:08:47.439Z,8.80
2018-01-26T10:11:14.925Z,8.80
2018-01-26T10:13:43.303Z,8.90
2018-01-26T10:16:11.738Z,8.90
2018-01-26T10:18:39.204Z,8.90
2018-01-26T10:21:06.703Z,8.90
2018-01-26T10:23:34.324Z,8.80
2018-01-26T10:26:01.825Z,8.70
2018-01-26T10:28:30.800Z,8.60
2018-01-26T10:30:58.264Z,8.60
2018-01-26T10:33:26.741Z,8.70
2018-01-26T10:35:54.213Z,8.70
2018-01-26T10:38:21.696Z,8.70
2018-01-26T10:40:49.957Z,8.80
2018-01-26T10:43:18.348Z,8.90
2018-01-26T10:45:45.861Z,8.90
2018-01-26T10:48:13.343Z,8.90
2018-01-26T10:50:40.828Z,8.90
2018-01-26T10:53:08.297Z,8.90
2018-01-26T10:55:35.840Z,8.90
2018-01-26T10:58:03.460Z,9.00
2018-01-26T11:00:31.941Z,9.00
2018-01-26T11:02:59.444Z,9.00
2018-01-26T11:05:27.545Z,9.10
2018-01-26T11:07:55.012Z,9.20
2018-01-26T11:10:22.699Z,9.10
2018-01-26T11:12:51.087Z,9.10
2018-01-26T11:15:19.358Z,9.00
2018-01-26T11:17:47.053Z,8.90
2018-01-26T11:20:14.566Z,9.00
2018-01-26T11:22:42.055Z,9.00
2018-01-26T11:25:10.344Z,9.00
2018-01-26T11:27:37.828Z,9.00
2018-01-26T11:30:05.334Z,9.00
2018-01-26T11:32:33.600Z,9.00
2018-01-26T11:35:01.850Z,9.00
2018-01-26T11:37:29.329Z,9.00
2018-01-26T11:39:56.811Z,9.10
2018-01-26T11:42:26.176Z,9.10
2018-01-26T11:44:53.648Z,9.10
2018-01-26T11:47:21.912Z,9.10
2018-01-26T11:49:49.505Z,9.10
2018-01-26T11:52:17.750Z,9.20
2018-01-26T11:54:45.235Z,9.20
2018-01-26T11:57:13.685Z,9.20
2018-01-26T11:59:41.169Z,9.20
2018-01-26T12:02:10.090Z,9.20
2018-01-26T12:04:37.619Z,9.20
2018-01-26T12:07:06.765Z,9.20
2018-01-26T12:09:34.216Z,9.20
2018-01-26T12:12:01.801Z,9.20
2018-01-26T12:14:30.153Z,9.30
2018-01-26T12:16:57.650Z,9.20
2018-01-26T12:19:26.178Z,9.30
2018-01-26T12:21:53.666Z,9.30
2018-01-26T12:24:22.832Z,9.30
2018-01-26T12:26:50.316Z,9.30
2018-01-26T12:29:17.819Z,9.30
2018-01-26T12:31:45.298Z,9.30
2018-01-26T12:34:13.789Z,9.20
2018-01-26T12:36:41.265Z,9.20
2018-01-26T12:39:08.764Z,9.20
2018-01-26T12:41:36.250Z,9.30
2018-01-26T12:44:03.733Z,9.40
2018-01-26T12:46:31.343Z,9.40
2018-01-26T12:48:59.575Z,9.40
2018-01-26T12:51:27.156Z,9.40
2018-01-26T12:53:55.645Z,9.40
2018-01-26T12:56:24.188Z,9.30
2018-01-26T12:58:51.685Z,9.40
2018-01-26T13:01:19.150Z,9.40
2018-01-26T13:03:47.525Z,9.50
2018-01-26T13:06:15.560Z,9.50
2018-01-26T13:08:43.881Z,9.60
2018-01-26T13:11:13.125Z,9.50
2018-01-26T13:13:40.604Z,9.40
2018-01-26T13:16:08.243Z,9.50
2018-01-26T13:18:35.873Z,9.50
2018-01-26T13:21:03.370Z,9.50
2018-01-26T13:23:31.896Z,9.60
2018-01-26T13:26:01.134Z,9.50
2018-01-26T13:28:28.620Z,9.50
2018-01-26T13:30:56.109Z,9.60
2018-01-26T13:33:23.740Z,9.60
2018-01-26T13:35:51.258Z,9.60
2018-01-26T13:38:18.782Z,9.60
2018-01-26T13:40:47.042Z,9.50
2018-01-26T13:43:15.641Z,9.50
2018-01-26T13:45:44.068Z,9.40
2018-01-26T13:48:11.785Z,9.40
2018-01-26T13:50:40.157Z,9.40
2018-01-26T13:53:07.628Z,9.40
2018-01-26T13:55:35.882Z,9.30
2018-01-26T13:58:03.344Z,9.30
2018-01-26T14:00:31.582Z,9.40
2018-01-26T14:03:00.070Z,9.40
2018-01-26T14:05:28.407Z,9.30
2018-01-26T14:07:56.020Z,9.30
2018-01-26T14:10:23.460Z,9.20
2018-01-26T14:12:50.933Z,9.30
2018-01-26T14:15:18.431Z,9.20
2018-01-26T14:17:46.669Z,9.40
2018-01-26T14:20:14.189Z,9.40
2018-01-26T14:22:42.505Z,9.40
2018-01-26T14:25:10.062Z,9.50
2018-01-26T14:27:37.694Z,9.50
2018-01-26T14:30:05.245Z,9.40
2018-01-26T14:32:32.757Z,9.40
2018-01-26T14:35:01.352Z,9.30
2018-01-26T14:37:29.640Z,9.20
2018-01-26T14:39:58.003Z,9.20
2018-01-26T14:42:27.113Z,9.20
2018-01-26T14:44:55.363Z,9.20
2018-01-26T14:47:22.827Z,9.20
2018-01-26T14:49:51.058Z,9.20
2018-01-26T14:52:18.528Z,9.20
2018-01-26T14:54:46.290Z,9.20
2018-01-26T14:57:13.748Z,9.20
2018-01-26T14:59:41.226Z,9.20
2018-01-26T15:02:08.704Z,9.10
2018-01-26T15:04:36.957Z,9.00
2018-01-26T15:07:04.471Z,9.00
2018-01-26T15:09:32.056Z,9.10
2018-01-26T15:11:59.664Z,9.00
2018-01-26T15:14:29.241Z,8.90
2018-01-26T15:16:56.717Z,8.90
2018-01-26T15:19:25.844Z,9.00
2018-01-26T15:21:53.530Z,8.90
2018-01-26T15:24:21.080Z,9.00
2018-01-26T15:26:48.613Z,9.00
2018-01-26T15:29:16.091Z,9.00
2018-01-26T15:31:43.584Z,9.00
2018-01-26T15:34:11.074Z,9.00
2018-01-26T15:36:38.565Z,9.00
2018-01-26T15:39:06.147Z,9.10
2018-01-26T15:41:33.680Z,9.10
2018-01-26T15:44:01.157Z,9.10
2018-01-26T15:46:29.765Z,9.10
2018-01-26T15:48:58.030Z,9.10
2018-01-26T15:51:25.663Z,9.10
2018-01-26T15:53:53.165Z,9.10
2018-01-26T15:56:20.669Z,9.00
2018-01-26T15:58:48.220Z,9.00
2018-01-26T16:01:15.703Z,8.90
2018-01-26T16:03:43.200Z,8.90
2018-01-26T16:06:11.580Z,9.00
2018-01-26T16:08:40.685Z,9.00
2018-01-26T16:11:09.011Z,8.90
2018-01-26T16:13:36.472Z,8.90
2018-01-26T16:16:04.030Z,8.90
2018-01-26T16:18:31.481Z,8.90
2018-01-26T16:21:03.491Z,8.90
2018-01-26T16:23:31.751Z,8.80
2018-01-26T16:25:59.319Z,8.80
2018-01-26T16:28:27.604Z,8.80
2018-01-26T16:30:56.143Z,8.70
2018-01-26T16:33:23.774Z,8.70
2018-01-26T16:35:51.366Z,8.70
2018-01-26T16:38:18.879Z,8.70
2018-01-26T16:40:47.113Z,8.60
2018-01-26T16:43:14.636Z,8.60
2018-01-26T16:45:42.127Z,8.50
2018-01-26T16:48:09.635Z,8.60
2018-01-26T16:50:37.103Z,8.50
2018-01-26T16:53:04.587Z,8.60
2018-01-26T16:55:32.080Z,8.60
2018-01-26T16:58:00.349Z,8.60
2018-01-26T17:00:28.578Z,8.60
2018-01-26T17:02:56.089Z,8.60
2018-01-26T17:05:24.445Z,8.50
2018-01-26T17:07:51.958Z,8.50
2018-01-26T17:10:19.485Z,8.40
2018-01-26T17:12:47.750Z,8.40
2018-01-26T17:15:16.180Z,8.30
2018-01-26T17:17:43.983Z,8.40
2018-01-26T17:20:12.318Z,8.40
2018-01-26T17:22:40.104Z,8.30
2018-01-26T17:25:08.916Z,8.30
2018-01-26T17:27:36.729Z,8.30
2018-01-26T17:30:04.266Z,8.30
2018-01-26T17:32:32.066Z,8.30
2018-01-26T17:35:01.684Z,8.20
2018-01-26T17:37:29.337Z,8.20
2018-01-26T17:39:57.184Z,8.10
2018-01-26T17:42:24.759Z,8.10
2018-01-26T17:44:52.493Z,8.10
2018-01-26T17:47:20.264Z,8.10
2018-01-26T17:49:47.984Z,8.10
2018-01-26T17:52:17.224Z,8.00
2018-01-26T17:54:45.108Z,8.00
2018-01-26T17:57:12.593Z,7.90
2018-01-26T17:59:40.288Z,8.00
2018-01-26T18:02:09.395Z,8.00
2018-01-26T18:04:36.957Z,7.90
2018-01-26T18:07:05.355Z,7.90
2018-01-26T18:09:32.862Z,7.80
2018-01-26T18:12:01.696Z,7.80
2018-01-26T18:14:29.221Z,7.70
2018-01-26T18:16:57.502Z,7.70
2018-01-26T18:19:25.875Z,7.70
2018-01-26T18:21:54.166Z,7.60
2018-01-26T18:24:21.653Z,7.60
2018-01-26T18:26:49.300Z,7.60
2018-01-26T18:29:17.599Z,7.60
2018-01-26T18:31:45.069Z,7.60
2018-01-26T18:34:12.552Z,7.60
2018-01-26T18:36:41.665Z,7.60
2018-01-26T18:39:09.935Z,7.50
2018-01-26T18:41:38.175Z,7.50
2018-01-26T18:44:05.776Z,7.40
2018-01-26T18:46:34.268Z,7.40
2018-01-26T18:49:02.573Z,7.40
2018-01-26T18:51:30.789Z,7.30
2018-01-26T18:53:59.025Z,7.30
2018-01-26T18:56:26.609Z,7.20
2018-01-26T18:58:54.382Z,7.20
2018-01-26T19:01:22.818Z,7.10
2018-01-26T19:03:51.222Z,7.10
2018-01-26T19:06:19.560Z,7.10
2018-01-26T19:08:47.188Z,7.10
2018-01-26T19:11:15.448Z,7.10
2018-01-26T19:13:43.204Z,7.00
2018-01-26T19:16:10.790Z,6.90
2018-01-26T19:18:39.885Z,7.00
2018-01-26T19:21:07.493Z,6.90
2018-01-26T19:23:35.152Z,6.90
2018-01-26T19:26:02.642Z,6.90
2018-01-26T19:28:30.130Z,6.90
2018-01-26T19:30:58.384Z,6.80
2018-01-26T19:33:28.329Z,6.90
2018-01-26T19:35:55.817Z,6.90
2018-01-26T19:38:23.352Z,6.90
2018-01-26T19:40:51.755Z,7.00
2018-01-26T19:43:20.493Z,7.00
2018-01-26T19:45:48.823Z,6.90
2018-01-26T19:48:16.411Z,7.00
2018-01-26T19:50:44.937Z,7.00
2018-01-26T19:53:12.950Z,7.10
2018-01-26T19:55:40.421Z,7.10
2018-01-26T19:58:08.485Z,7.20
2018-01-26T20:00:36.011Z,7.20
2018-01-26T20:03:15.159Z,7.10
2018-01-26T20:05:49.375Z,7.10
2018-01-26T20:08:28.156Z,7.00
2018-01-26T20:10:55.646Z,7.10
2018-01-26T20:13:27.965Z,7.10
2018-01-26T20:15:57.281Z,7.10
2018-01-26T20:18:25.761Z,7.00
2018-01-26T20:20:54.906Z,7.00
2018-01-26T20:23:22.376Z,7.00
2018-01-26T20:25:49.874Z,7.10
2018-01-26T20:28:17.401Z,7.10
2018-01-26T20:30:44.962Z,7.10
2018-01-26T20:33:12.726Z,7.10
2018-01-26T20:35:40.238Z,7.10
2018-01-26T20:38:09.689Z,7.10
2018-01-26T20:40:37.196Z,7.00
2018-01-26T20:43:04.719Z,7.00
2018-01-26T20:45:33.999Z,7.00
2018-01-26T20:48:02.192Z,7.00
2018-01-26T20:50:31.047Z,7.10
2018-01-26T20:52:59.463Z,7.10
2018-01-26T20:55:27.710Z,7.10
2018-01-26T20:57:55.312Z,7.10
2018-01-26T21:00:22.920Z,7.10
2018-01-26T21:02:51.408Z,7.10
2018-01-26T21:05:18.902Z,7.00
2018-01-26T21:07:46.569Z,7.00
2018-01-26T21:10:14.563Z,7.00
2018-01-26T21:12:43.046Z,7.10
2018-01-26T21:15:10.563Z,7.10
2018-01-26T21:17:39.215Z,7.10
2018-01-26T21:20:06.767Z,7.10
2018-01-26T21:22:35.307Z,7.10
2018-01-26T21:25:02.904Z,7.20
2018-01-26T21:27:30.386Z,7.20
2018-01-26T21:29:58.021Z,7.20
2018-01-26T21:32:25.538Z,7.30
2018-01-26T21:34:53.179Z,7.40
2018-01-26T21:37:21.456Z,7.30
2018-01-26T21:39:48.993Z,7.30
2018-01-26T21:42:16.476Z,7.30
2018-01-26T21:44:45.378Z,7.20
2018-01-26T21:47:13.713Z,7.20
2018-01-26T21:49:42.126Z,7.20
2018-01-26T21:52:10.527Z,7.30
2018-01-26T21:54:38.021Z,7.20
2018-01-26T21:57:05.530Z,7.30
2018-01-26T21:59:33.781Z,7.20
2018-01-26T22:02:01.804Z,7.20
2018-01-26T22:04:35.168Z,7.20
2018-01-26T22:07:09.073Z,7.30
2018-01-26T22:09:37.437Z,7.40
2018-01-26T22:12:04.919Z,7.30
2018-01-26T22:14:32.505Z,7.30
2018-01-26T22:17:00.853Z,7.30
2018-01-26T22:19:29.103Z,7.20
2018-01-26T22:21:57.366Z,7.20
2018-01-26T22:24:24.861Z,7.20
2018-01-26T22:26:52.348Z,7.20
2018-01-26T22:29:19.918Z,7.20
2018-01-26T22:31:47.383Z,7.20
2018-01-26T22:34:14.865Z,7.20
2018-01-26T22:36:42.350Z,7.20
2018-01-26T22:39:09.834Z,7.10
2018-01-26T22:41:38.220Z,7.10
2018-01-26T22:44:06.667Z,7.20
2018-01-26T22:46:34.133Z,7.20
2018-01-26T22:49:01.694Z,7.20
2018-01-26T22:51:29.168Z,7.30
2018-01-26T22:53:56.681Z,7.40
2018-01-26T22:56:24.907Z,7.40
2018-01-26T22:58:52.503Z,7.40
2018-01-26T23:01:19.979Z,7.40
2018-01-26T23:03:48.225Z,7.40
2018-01-26T23:06:16.637Z,7.40
2018-01-26T23:08:44.862Z,7.40
2018-01-26T23:11:13.387Z,7.40
2018-01-26T23:13:42.472Z,7.40
2018-01-26T23:16:11.692Z,7.40
2018-01-26T23:18:39.943Z,7.40
2018-01-26T23:21:07.472Z,7.40
2018-01-26T23:23:35.953Z,7.40
2018-01-26T23:26:04.348Z,7.40
2018-01-26T23:28:32.745Z,7.30
2018-01-26T23:31:02.512Z,7.10
2018-01-26T23:33:29.990Z,7.00
2018-01-26T23:35:58.297Z,7.00
2018-01-26T23:38:27.514Z,7.10
2018-01-26T23:40:54.997Z,7.10
2018-01-26T23:43:22.504Z,7.10
2018-01-26T23:45:51.673Z,7.10
2018-01-26T23:48:19.143Z,7.10
2018-01-26T23:50:46.660Z,7.10
2018-01-26T23:53:15.039Z,7.10
2018-01-26T23:55:42.649Z,7.10
2018-01-26T23:58:11.897Z,7.20
